sensor_id;sensor_type;location;lat;lon;timestamp;temperature;humidity
52181;DHT22;38158;53.338;6.514;2023-04-04T00:01:14;2.60;99.90
52181;DHT22;38158;53.338;6.514;2023-04-04T00:03:41;2.40;99.90
52181;DHT22;38158;53.338;6.514;2023-04-04T00:06:07;2.30;99.90
52181;DHT22;38158;53.338;6.514;2023-04-04T00:08:32;2.30;99.90
52181;DHT22;38158;53.338;6.514;2023-04-04T00:11:01;2.30;99.90
52181;DHT22;38158;53.338;6.514;2023-04-04T00:13:27;2.30;99.90
52181;DHT22;38158;53.338;6.514;2023-04-04T00:15:54;2.20;99.90
52181;DHT22;38158;53.338;6.514;2023-04-04T00:18:20;2.30;99.90
52181;DHT22;38158;53.338;6.514;2023-04-04T00:20:46;2.30;99.90
52181;DHT22;38158;53.338;6.514;2023-04-04T00:23:11;2.20;99.90
52181;DHT22;38158;53.338;6.514;2023-04-04T00:25:37;2.20;99.90
52181;DHT22;38158;53.338;6.514;2023-04-04T00:28:03;3.00;99.90
52181;DHT22;38158;53.338;6.514;2023-04-04T00:30:29;2.10;99.90
52181;DHT22;38158;53.338;6.514;2023-04-04T00:32:56;2.10;99.90
52181;DHT22;38158;53.338;6.514;2023-04-04T00:35:22;2.00;99.90
52181;DHT22;38158;53.338;6.514;2023-04-04T00:37:48;2.00;99.90
52181;DHT22;38158;53.338;6.514;2023-04-04T00:40:14;2.00;99.90
52181;DHT22;38158;53.338;6.514;2023-04-04T00:42:40;2.00;99.90
52181;DHT22;38158;53.338;6.514;2023-04-04T00:45:06;2.00;99.90
52181;DHT22;38158;53.338;6.514;2023-04-04T00:47:33;2.00;99.90
52181;DHT22;38158;53.338;6.514;2023-04-04T00:49:59;2.00;99.90
52181;DHT22;38158;53.338;6.514;2023-04-04T00:52:26;2.00;99.90
52181;DHT22;38158;53.338;6.514;2023-04-04T00:54:54;2.00;99.90
52181;DHT22;38158;53.338;6.514;2023-04-04T00:57:20;1.00;99.90
52181;DHT22;38158;53.338;6.514;2023-04-04T00:59:47;1.90;99.90
52181;DHT22;38158;53.338;6.514;2023-04-04T01:02:13;1.90;99.90
52181;DHT22;38158;53.338;6.514;2023-04-04T01:04:38;2.00;99.90
52181;DHT22;38158;53.338;6.514;2023-04-04T01:07:04;2.00;99.90
52181;DHT22;38158;53.338;6.514;2023-04-04T01:09:30;2.00;99.90
52181;DHT22;38158;53.338;6.514;2023-04-04T01:11:57;2.20;99.90
52181;DHT22;38158;53.338;6.514;2023-04-04T01:14:23;2.00;99.90
52181;DHT22;38158;53.338;6.514;2023-04-04T01:16:50;1.90;99.90
52181;DHT22;38158;53.338;6.514;2023-04-04T01:19:28;2.00;99.90
52181;DHT22;38158;53.338;6.514;2023-04-04T01:21:56;2.00;99.90
52181;DHT22;38158;53.338;6.514;2023-04-04T01:24:23;1.90;99.90
52181;DHT22;38158;53.338;6.514;2023-04-04T01:26:50;2.40;99.90
52181;DHT22;38158;53.338;6.514;2023-04-04T01:29:16;1.90;99.90
52181;DHT22;38158;53.338;6.514;2023-04-04T01:31:48;1.90;99.90
52181;DHT22;38158;53.338;6.514;2023-04-04T01:37:06;1.90;99.90
52181;DHT22;38158;53.338;6.514;2023-04-04T01:39:40;1.90;99.90
52181;DHT22;38158;53.338;6.514;2023-04-04T01:42:08;2.80;99.90
52181;DHT22;38158;53.338;6.514;2023-04-04T01:44:34;1.80;99.90
52181;DHT22;38158;53.338;6.514;2023-04-04T01:47:00;1.90;99.90
52181;DHT22;38158;53.338;6.514;2023-04-04T01:49:27;2.40;99.90
52181;DHT22;38158;53.338;6.514;2023-04-04T01:51:54;1.80;99.90
52181;DHT22;38158;53.338;6.514;2023-04-04T01:54:20;1.80;99.90
52181;DHT22;38158;53.338;6.514;2023-04-04T01:56:47;1.80;99.90
52181;DHT22;38158;53.338;6.514;2023-04-04T01:59:12;1.80;99.90
52181;DHT22;38158;53.338;6.514;2023-04-04T02:01:38;1.70;99.90
52181;DHT22;38158;53.338;6.514;2023-04-04T02:04:04;1.60;99.90
52181;DHT22;38158;53.338;6.514;2023-04-04T02:06:30;1.90;99.90
52181;DHT22;38158;53.338;6.514;2023-04-04T02:08:55;1.70;99.90
52181;DHT22;38158;53.338;6.514;2023-04-04T02:11:21;1.50;99.90
52181;DHT22;38158;53.338;6.514;2023-04-04T02:13:48;2.20;99.90
52181;DHT22;38158;53.338;6.514;2023-04-04T02:16:14;1.50;99.90
52181;DHT22;38158;53.338;6.514;2023-04-04T02:18:40;2.00;99.90
52181;DHT22;38158;53.338;6.514;2023-04-04T02:21:06;1.40;99.90
52181;DHT22;38158;53.338;6.514;2023-04-04T02:23:32;1.60;99.90
52181;DHT22;38158;53.338;6.514;2023-04-04T02:25:57;1.30;99.90
52181;DHT22;38158;53.338;6.514;2023-04-04T02:28:23;1.60;99.90
52181;DHT22;38158;53.338;6.514;2023-04-04T02:30:49;1.30;99.90
52181;DHT22;38158;53.338;6.514;2023-04-04T02:33:15;2.00;99.90
52181;DHT22;38158;53.338;6.514;2023-04-04T02:35:40;1.30;99.90
52181;DHT22;38158;53.338;6.514;2023-04-04T02:38:06;1.30;99.90
52181;DHT22;38158;53.338;6.514;2023-04-04T02:40:32;2.20;99.90
52181;DHT22;38158;53.338;6.514;2023-04-04T02:42:57;2.10;99.90
52181;DHT22;38158;53.338;6.514;2023-04-04T02:45:23;2.10;99.90
52181;DHT22;38158;53.338;6.514;2023-04-04T02:47:49;1.60;99.90
52181;DHT22;38158;53.338;6.514;2023-04-04T02:50:15;1.10;99.90
52181;DHT22;38158;53.338;6.514;2023-04-04T02:52:41;1.10;99.90
52181;DHT22;38158;53.338;6.514;2023-04-04T02:55:07;2.00;99.90
52181;DHT22;38158;53.338;6.514;2023-04-04T02:57:34;1.20;99.90
52181;DHT22;38158;53.338;6.514;2023-04-04T03:00:01;1.20;99.90
52181;DHT22;38158;53.338;6.514;2023-04-04T03:02:28;1.90;99.90
52181;DHT22;38158;53.338;6.514;2023-04-04T03:04:55;1.60;99.90
52181;DHT22;38158;53.338;6.514;2023-04-04T03:07:20;1.20;99.90
52181;DHT22;38158;53.338;6.514;2023-04-04T03:09:47;1.60;99.90
52181;DHT22;38158;53.338;6.514;2023-04-04T03:12:13;1.20;99.90
52181;DHT22;38158;53.338;6.514;2023-04-04T03:14:39;1.20;99.90
52181;DHT22;38158;53.338;6.514;2023-04-04T03:17:05;1.20;99.90
52181;DHT22;38158;53.338;6.514;2023-04-04T03:19:32;1.10;99.90
52181;DHT22;38158;53.338;6.514;2023-04-04T03:21:58;1.10;99.90
52181;DHT22;38158;53.338;6.514;2023-04-04T03:24:23;1.10;99.90
52181;DHT22;38158;53.338;6.514;2023-04-04T03:26:49;1.90;99.90
52181;DHT22;38158;53.338;6.514;2023-04-04T03:29:15;1.30;99.90
52181;DHT22;38158;53.338;6.514;2023-04-04T03:31:41;0.90;99.90
52181;DHT22;38158;53.338;6.514;2023-04-04T03:34:07;1.80;99.90
52181;DHT22;38158;53.338;6.514;2023-04-04T03:36:33;0.80;99.90
52181;DHT22;38158;53.338;6.514;2023-04-04T03:38:59;0.80;99.90
52181;DHT22;38158;53.338;6.514;2023-04-04T03:41:25;0.80;99.90
52181;DHT22;38158;53.338;6.514;2023-04-04T03:43:51;0.80;99.90
52181;DHT22;38158;53.338;6.514;2023-04-04T03:46:16;0.80;99.90
52181;DHT22;38158;53.338;6.514;2023-04-04T03:48:42;0.80;99.90
52181;DHT22;38158;53.338;6.514;2023-04-04T03:51:08;0.80;99.90
52181;DHT22;38158;53.338;6.514;2023-04-04T03:53:33;0.80;99.90
52181;DHT22;38158;53.338;6.514;2023-04-04T03:56:01;0.80;99.90
52181;DHT22;38158;53.338;6.514;2023-04-04T03:58:27;0.80;99.90
52181;DHT22;38158;53.338;6.514;2023-04-04T04:00:53;0.80;99.90
52181;DHT22;38158;53.338;6.514;2023-04-04T04:03:19;1.30;99.90
52181;DHT22;38158;53.338;6.514;2023-04-04T04:05:46;1.70;99.90
52181;DHT22;38158;53.338;6.514;2023-04-04T04:08:12;0.80;99.90
52181;DHT22;38158;53.338;6.514;2023-04-04T04:10:38;0.90;99.90
52181;DHT22;38158;53.338;6.514;2023-04-04T04:13:03;0.80;99.90
52181;DHT22;38158;53.338;6.514;2023-04-04T04:15:29;0.80;99.90
52181;DHT22;38158;53.338;6.514;2023-04-04T04:17:55;0.90;99.90
52181;DHT22;38158;53.338;6.514;2023-04-04T04:20:21;1.50;99.90
52181;DHT22;38158;53.338;6.514;2023-04-04T04:22:47;0.90;99.90
52181;DHT22;38158;53.338;6.514;2023-04-04T04:25:14;1.20;99.90
52181;DHT22;38158;53.338;6.514;2023-04-04T04:27:40;0.80;99.90
52181;DHT22;38158;53.338;6.514;2023-04-04T04:30:06;0.80;99.90
52181;DHT22;38158;53.338;6.514;2023-04-04T04:32:33;0.80;99.90
52181;DHT22;38158;53.338;6.514;2023-04-04T04:34:58;1.60;99.90
52181;DHT22;38158;53.338;6.514;2023-04-04T04:37:24;1.60;99.90
52181;DHT22;38158;53.338;6.514;2023-04-04T04:39:51;0.80;99.90
52181;DHT22;38158;53.338;6.514;2023-04-04T04:42:17;1.90;99.90
52181;DHT22;38158;53.338;6.514;2023-04-04T04:44:42;1.00;99.90
52181;DHT22;38158;53.338;6.514;2023-04-04T04:47:08;0.90;99.90
52181;DHT22;38158;53.338;6.514;2023-04-04T04:49:34;0.80;99.90
52181;DHT22;38158;53.338;6.514;2023-04-04T04:52:00;1.20;99.90
52181;DHT22;38158;53.338;6.514;2023-04-04T04:54:27;2.00;99.90
52181;DHT22;38158;53.338;6.514;2023-04-04T04:56:53;0.80;99.90
52181;DHT22;38158;53.338;6.514;2023-04-04T04:59:19;0.60;99.90
52181;DHT22;38158;53.338;6.514;2023-04-04T05:01:45;0.50;99.90
52181;DHT22;38158;53.338;6.514;2023-04-04T05:04:10;1.20;99.90
52181;DHT22;38158;53.338;6.514;2023-04-04T05:06:36;0.30;99.90
52181;DHT22;38158;53.338;6.514;2023-04-04T05:09:05;0.30;99.90
52181;DHT22;38158;53.338;6.514;2023-04-04T05:11:31;0.90;99.90
52181;DHT22;38158;53.338;6.514;2023-04-04T05:13:56;2.50;99.90
52181;DHT22;38158;53.338;6.514;2023-04-04T05:16:23;0.50;99.90
52181;DHT22;38158;53.338;6.514;2023-04-04T05:18:48;0.60;99.90
52181;DHT22;38158;53.338;6.514;2023-04-04T05:21:14;0.60;99.90
52181;DHT22;38158;53.338;6.514;2023-04-04T05:23:40;0.60;99.90
52181;DHT22;38158;53.338;6.514;2023-04-04T05:26:06;0.60;99.90
52181;DHT22;38158;53.338;6.514;2023-04-04T05:28:32;0.70;99.90
52181;DHT22;38158;53.338;6.514;2023-04-04T05:30:59;0.70;99.90
52181;DHT22;38158;53.338;6.514;2023-04-04T05:33:24;0.70;99.90
52181;DHT22;38158;53.338;6.514;2023-04-04T05:35:50;0.70;99.90
52181;DHT22;38158;53.338;6.514;2023-04-04T05:38:16;0.80;99.90
52181;DHT22;38158;53.338;6.514;2023-04-04T05:40:41;0.90;99.90
52181;DHT22;38158;53.338;6.514;2023-04-04T05:43:07;1.00;99.90
52181;DHT22;38158;53.338;6.514;2023-04-04T05:45:33;0.90;99.90
52181;DHT22;38158;53.338;6.514;2023-04-04T05:47:59;0.90;99.90
52181;DHT22;38158;53.338;6.514;2023-04-04T05:50:25;1.00;99.90
52181;DHT22;38158;53.338;6.514;2023-04-04T05:52:54;1.10;99.90
52181;DHT22;38158;53.338;6.514;2023-04-04T05:55:20;1.90;99.90
52181;DHT22;38158;53.338;6.514;2023-04-04T05:57:50;1.10;99.90
52181;DHT22;38158;53.338;6.514;2023-04-04T06:00:17;1.00;99.90
52181;DHT22;38158;53.338;6.514;2023-04-04T06:02:43;1.10;99.90
52181;DHT22;38158;53.338;6.514;2023-04-04T06:05:09;1.10;99.90
52181;DHT22;38158;53.338;6.514;2023-04-04T06:07:35;1.10;99.90
52181;DHT22;38158;53.338;6.514;2023-04-04T06:10:01;1.20;99.90
52181;DHT22;38158;53.338;6.514;2023-04-04T06:12:27;2.00;99.90
52181;DHT22;38158;53.338;6.514;2023-04-04T06:14:53;1.20;99.90
52181;DHT22;38158;53.338;6.514;2023-04-04T06:17:19;1.30;99.90
52181;DHT22;38158;53.338;6.514;2023-04-04T06:19:44;1.30;99.90
52181;DHT22;38158;53.338;6.514;2023-04-04T06:22:10;1.40;99.90
52181;DHT22;38158;53.338;6.514;2023-04-04T06:24:36;1.40;99.90
52181;DHT22;38158;53.338;6.514;2023-04-04T06:27:01;1.90;99.90
52181;DHT22;38158;53.338;6.514;2023-04-04T06:29:27;1.80;99.90
52181;DHT22;38158;53.338;6.514;2023-04-04T06:31:53;2.60;99.90
52181;DHT22;38158;53.338;6.514;2023-04-04T06:34:20;1.70;99.90
52181;DHT22;38158;53.338;6.514;2023-04-04T06:36:45;1.70;99.90
52181;DHT22;38158;53.338;6.514;2023-04-04T06:39:11;1.70;99.90
52181;DHT22;38158;53.338;6.514;2023-04-04T06:41:37;2.70;99.90
52181;DHT22;38158;53.338;6.514;2023-04-04T06:44:02;1.90;99.90
52181;DHT22;38158;53.338;6.514;2023-04-04T06:46:29;1.90;99.90
52181;DHT22;38158;53.338;6.514;2023-04-04T06:48:56;3.00;99.90
52181;DHT22;38158;53.338;6.514;2023-04-04T06:51:21;2.10;99.90
52181;DHT22;38158;53.338;6.514;2023-04-04T06:53:48;2.20;99.90
52181;DHT22;38158;53.338;6.514;2023-04-04T06:56:14;2.30;99.90
52181;DHT22;38158;53.338;6.514;2023-04-04T06:58:39;2.40;99.90
52181;DHT22;38158;53.338;6.514;2023-04-04T07:01:05;2.50;99.90
52181;DHT22;38158;53.338;6.514;2023-04-04T07:03:31;2.50;99.90
52181;DHT22;38158;53.338;6.514;2023-04-04T07:05:57;2.60;99.90
52181;DHT22;38158;53.338;6.514;2023-04-04T07:08:22;2.70;99.90
52181;DHT22;38158;53.338;6.514;2023-04-04T07:10:48;2.80;99.90
52181;DHT22;38158;53.338;6.514;2023-04-04T07:13:14;2.80;99.90
52181;DHT22;38158;53.338;6.514;2023-04-04T07:15:40;2.90;99.90
52181;DHT22;38158;53.338;6.514;2023-04-04T07:18:05;3.40;99.90
52181;DHT22;38158;53.338;6.514;2023-04-04T07:20:31;3.00;99.90
52181;DHT22;38158;53.338;6.514;2023-04-04T07:22:57;3.80;99.90
52181;DHT22;38158;53.338;6.514;2023-04-04T07:25:23;3.60;99.90
52181;DHT22;38158;53.338;6.514;2023-04-04T07:27:48;3.20;99.90
52181;DHT22;38158;53.338;6.514;2023-04-04T07:30:14;3.30;99.90
52181;DHT22;38158;53.338;6.514;2023-04-04T07:32:40;3.40;99.90
52181;DHT22;38158;53.338;6.514;2023-04-04T07:35:06;3.60;99.90
52181;DHT22;38158;53.338;6.514;2023-04-04T07:37:35;3.60;99.90
52181;DHT22;38158;53.338;6.514;2023-04-04T07:40:01;3.70;99.90
52181;DHT22;38158;53.338;6.514;2023-04-04T07:42:27;4.20;99.90
52181;DHT22;38158;53.338;6.514;2023-04-04T07:44:55;4.20;99.90
52181;DHT22;38158;53.338;6.514;2023-04-04T07:47:21;3.90;99.90
52181;DHT22;38158;53.338;6.514;2023-04-04T07:49:46;4.00;99.90
52181;DHT22;38158;53.338;6.514;2023-04-04T07:52:12;4.20;99.90
52181;DHT22;38158;53.338;6.514;2023-04-04T07:54:38;4.50;99.90
52181;DHT22;38158;53.338;6.514;2023-04-04T07:57:05;4.40;99.90
52181;DHT22;38158;53.338;6.514;2023-04-04T07:59:35;4.50;99.90
52181;DHT22;38158;53.338;6.514;2023-04-04T08:02:01;4.60;99.90
52181;DHT22;38158;53.338;6.514;2023-04-04T08:04:26;4.70;99.90
52181;DHT22;38158;53.338;6.514;2023-04-04T08:06:52;5.50;99.90
52181;DHT22;38158;53.338;6.514;2023-04-04T08:09:17;4.80;99.90
52181;DHT22;38158;53.338;6.514;2023-04-04T08:11:43;4.90;99.90
52181;DHT22;38158;53.338;6.514;2023-04-04T08:14:09;5.00;99.90
52181;DHT22;38158;53.338;6.514;2023-04-04T08:16:37;5.10;99.90
52181;DHT22;38158;53.338;6.514;2023-04-04T08:19:03;5.10;99.90
52181;DHT22;38158;53.338;6.514;2023-04-04T08:21:29;5.30;99.90
52181;DHT22;38158;53.338;6.514;2023-04-04T08:23:55;5.30;99.90
52181;DHT22;38158;53.338;6.514;2023-04-04T08:26:20;5.40;99.90
52181;DHT22;38158;53.338;6.514;2023-04-04T08:28:47;5.50;99.90
52181;DHT22;38158;53.338;6.514;2023-04-04T08:31:13;5.60;99.90
52181;DHT22;38158;53.338;6.514;2023-04-04T08:33:38;5.70;99.90
52181;DHT22;38158;53.338;6.514;2023-04-04T08:36:04;5.80;99.90
52181;DHT22;38158;53.338;6.514;2023-04-04T08:38:30;5.90;99.90
52181;DHT22;38158;53.338;6.514;2023-04-04T08:40:56;5.90;99.90
52181;DHT22;38158;53.338;6.514;2023-04-04T08:43:23;6.00;99.90
52181;DHT22;38158;53.338;6.514;2023-04-04T08:45:53;6.10;99.90
52181;DHT22;38158;53.338;6.514;2023-04-04T08:48:19;6.10;99.90
52181;DHT22;38158;53.338;6.514;2023-04-04T08:50:46;6.10;99.90
52181;DHT22;38158;53.338;6.514;2023-04-04T08:53:13;6.20;99.90
52181;DHT22;38158;53.338;6.514;2023-04-04T08:55:41;6.30;99.90
52181;DHT22;38158;53.338;6.514;2023-04-04T08:58:07;6.30;99.90
52181;DHT22;38158;53.338;6.514;2023-04-04T09:00:33;6.40;99.90
52181;DHT22;38158;53.338;6.514;2023-04-04T09:03:07;6.50;99.90
52181;DHT22;38158;53.338;6.514;2023-04-04T09:05:34;6.50;99.90
52181;DHT22;38158;53.338;6.514;2023-04-04T09:08:00;6.60;99.90
52181;DHT22;38158;53.338;6.514;2023-04-04T09:10:28;6.80;99.90
52181;DHT22;38158;53.338;6.514;2023-04-04T09:12:55;6.90;99.90
52181;DHT22;38158;53.338;6.514;2023-04-04T09:15:21;6.90;99.90
52181;DHT22;38158;53.338;6.514;2023-04-04T09:17:47;7.10;99.90
52181;DHT22;38158;53.338;6.514;2023-04-04T09:23:00;6.80;99.90
52181;DHT22;38158;53.338;6.514;2023-04-04T09:25:26;6.90;99.90
52181;DHT22;38158;53.338;6.514;2023-04-04T09:27:52;7.00;99.90
52181;DHT22;38158;53.338;6.514;2023-04-04T09:30:18;7.00;99.90
52181;DHT22;38158;53.338;6.514;2023-04-04T09:32:45;7.10;99.90
52181;DHT22;38158;53.338;6.514;2023-04-04T09:35:11;7.10;99.90
52181;DHT22;38158;53.338;6.514;2023-04-04T09:37:40;7.20;99.90
52181;DHT22;38158;53.338;6.514;2023-04-04T09:40:08;7.20;99.90
52181;DHT22;38158;53.338;6.514;2023-04-04T09:42:35;7.30;99.90
52181;DHT22;38158;53.338;6.514;2023-04-04T09:45:01;7.40;99.90
52181;DHT22;38158;53.338;6.514;2023-04-04T09:47:27;7.40;99.90
52181;DHT22;38158;53.338;6.514;2023-04-04T09:50:02;7.40;99.90
52181;DHT22;38158;53.338;6.514;2023-04-04T09:52:32;7.50;99.90
52181;DHT22;38158;53.338;6.514;2023-04-04T09:55:01;7.60;99.90
52181;DHT22;38158;53.338;6.514;2023-04-04T09:57:32;7.50;99.90
52181;DHT22;38158;53.338;6.514;2023-04-04T10:00:05;7.60;99.90
52181;DHT22;38158;53.338;6.514;2023-04-04T10:02:36;7.60;99.90
52181;DHT22;38158;53.338;6.514;2023-04-04T10:05:04;7.70;99.90
52181;DHT22;38158;53.338;6.514;2023-04-04T10:07:31;7.80;99.90
52181;DHT22;38158;53.338;6.514;2023-04-04T10:10:00;7.90;99.90
52181;DHT22;38158;53.338;6.514;2023-04-04T10:12:26;7.90;99.90
52181;DHT22;38158;53.338;6.514;2023-04-04T10:14:56;7.90;99.90
52181;DHT22;38158;53.338;6.514;2023-04-04T10:17:23;8.00;99.90
52181;DHT22;38158;53.338;6.514;2023-04-04T10:19:51;8.10;99.90
52181;DHT22;38158;53.338;6.514;2023-04-04T10:22:19;8.10;99.90
52181;DHT22;38158;53.338;6.514;2023-04-04T10:24:46;8.30;99.90
52181;DHT22;38158;53.338;6.514;2023-04-04T10:27:12;8.40;99.90
52181;DHT22;38158;53.338;6.514;2023-04-04T10:29:38;8.50;99.90
52181;DHT22;38158;53.338;6.514;2023-04-04T10:32:08;8.60;99.90
52181;DHT22;38158;53.338;6.514;2023-04-04T10:34:43;8.60;98.40
52181;DHT22;38158;53.338;6.514;2023-04-04T10:37:14;8.60;98.10
52181;DHT22;38158;53.338;6.514;2023-04-04T10:39:51;8.60;99.70
52181;DHT22;38158;53.338;6.514;2023-04-04T10:42:18;8.70;99.10
52181;DHT22;38158;53.338;6.514;2023-04-04T10:44:44;8.90;99.80
52181;DHT22;38158;53.338;6.514;2023-04-04T10:47:17;9.00;98.90
52181;DHT22;38158;53.338;6.514;2023-04-04T10:49:44;8.90;95.60
52181;DHT22;38158;53.338;6.514;2023-04-04T10:52:10;9.00;98.10
52181;DHT22;38158;53.338;6.514;2023-04-04T10:54:38;9.00;94.00
52181;DHT22;38158;53.338;6.514;2023-04-04T10:57:04;8.90;98.20
52181;DHT22;38158;53.338;6.514;2023-04-04T10:59:30;8.90;90.20
52181;DHT22;38158;53.338;6.514;2023-04-04T11:01:58;8.90;98.00
52181;DHT22;38158;53.338;6.514;2023-04-04T11:04:34;8.90;97.40
52181;DHT22;38158;53.338;6.514;2023-04-04T11:07:11;8.90;97.40
52181;DHT22;38158;53.338;6.514;2023-04-04T11:09:50;8.90;91.90
52181;DHT22;38158;53.338;6.514;2023-04-04T11:12:28;9.00;95.60
52181;DHT22;38158;53.338;6.514;2023-04-04T11:15:05;9.00;96.00
52181;DHT22;38158;53.338;6.514;2023-04-04T11:20:20;9.00;91.90
52181;DHT22;38158;53.338;6.514;2023-04-04T11:23:06;9.00;93.70
52181;DHT22;38158;53.338;6.514;2023-04-04T11:25:34;8.90;91.30
52181;DHT22;38158;53.338;6.514;2023-04-04T11:28:14;9.00;94.30
52181;DHT22;38158;53.338;6.514;2023-04-04T11:30:41;9.10;93.10
52181;DHT22;38158;53.338;6.514;2023-04-04T11:33:35;9.20;93.20
52181;DHT22;38158;53.338;6.514;2023-04-04T11:44:10;9.40;85.10
52181;DHT22;38158;53.338;6.514;2023-04-04T11:46:36;9.40;90.30
52181;DHT22;38158;53.338;6.514;2023-04-04T11:49:02;9.40;90.20
52181;DHT22;38158;53.338;6.514;2023-04-04T11:51:29;9.40;90.00
52181;DHT22;38158;53.338;6.514;2023-04-04T11:53:56;9.30;86.60
52181;DHT22;38158;53.338;6.514;2023-04-04T11:56:22;9.30;87.30
52181;DHT22;38158;53.338;6.514;2023-04-04T11:58:50;9.30;86.90
52181;DHT22;38158;53.338;6.514;2023-04-04T12:01:16;9.30;86.30
52181;DHT22;38158;53.338;6.514;2023-04-04T12:03:43;9.40;86.60
52181;DHT22;38158;53.338;6.514;2023-04-04T12:06:10;9.30;86.80
52181;DHT22;38158;53.338;6.514;2023-04-04T12:08:36;9.30;83.00
52181;DHT22;38158;53.338;6.514;2023-04-04T12:11:07;9.30;87.70
52181;DHT22;38158;53.338;6.514;2023-04-04T12:13:41;9.30;85.30
52181;DHT22;38158;53.338;6.514;2023-04-04T12:16:09;9.40;83.40
52181;DHT22;38158;53.338;6.514;2023-04-04T12:18:35;9.50;86.30
52181;DHT22;38158;53.338;6.514;2023-04-04T12:21:02;9.50;83.40
52181;DHT22;38158;53.338;6.514;2023-04-04T12:23:33;9.40;85.80
52181;DHT22;38158;53.338;6.514;2023-04-04T12:25:59;9.50;84.50
52181;DHT22;38158;53.338;6.514;2023-04-04T12:28:28;9.50;84.10
52181;DHT22;38158;53.338;6.514;2023-04-04T12:30:55;9.40;84.40
52181;DHT22;38158;53.338;6.514;2023-04-04T12:33:21;9.50;83.80
52181;DHT22;38158;53.338;6.514;2023-04-04T12:35:54;9.50;84.00
52181;DHT22;38158;53.338;6.514;2023-04-04T12:38:20;9.60;80.80
52181;DHT22;38158;53.338;6.514;2023-04-04T12:40:45;9.60;83.20
52181;DHT22;38158;53.338;6.514;2023-04-04T12:43:15;9.60;83.90
52181;DHT22;38158;53.338;6.514;2023-04-04T12:45:42;9.70;81.00
52181;DHT22;38158;53.338;6.514;2023-04-04T12:48:13;9.70;80.80
52181;DHT22;38158;53.338;6.514;2023-04-04T12:53:17;9.70;79.50
52181;DHT22;38158;53.338;6.514;2023-04-04T12:55:47;9.70;81.60
52181;DHT22;38158;53.338;6.514;2023-04-04T12:58:18;9.80;78.60
52181;DHT22;38158;53.338;6.514;2023-04-04T13:00:44;9.80;80.20
52181;DHT22;38158;53.338;6.514;2023-04-04T13:03:12;9.80;79.50
52181;DHT22;38158;53.338;6.514;2023-04-04T13:05:38;9.70;80.70
52181;DHT22;38158;53.338;6.514;2023-04-04T13:08:08;9.60;83.40
52181;DHT22;38158;53.338;6.514;2023-04-04T13:10:57;9.60;81.40
52181;DHT22;38158;53.338;6.514;2023-04-04T13:13:39;9.60;84.70
52181;DHT22;38158;53.338;6.514;2023-04-04T13:16:32;9.70;82.10
52181;DHT22;38158;53.338;6.514;2023-04-04T13:18:58;9.70;84.40
52181;DHT22;38158;53.338;6.514;2023-04-04T13:21:24;9.70;86.00
52181;DHT22;38158;53.338;6.514;2023-04-04T13:23:51;9.80;86.40
52181;DHT22;38158;53.338;6.514;2023-04-04T13:26:16;9.90;86.90
52181;DHT22;38158;53.338;6.514;2023-04-04T13:28:42;9.90;85.90
52181;DHT22;38158;53.338;6.514;2023-04-04T13:31:08;9.90;86.00
52181;DHT22;38158;53.338;6.514;2023-04-04T13:33:36;9.80;85.30
52181;DHT22;38158;53.338;6.514;2023-04-04T13:36:02;9.80;84.90
52181;DHT22;38158;53.338;6.514;2023-04-04T13:38:28;9.80;85.10
52181;DHT22;38158;53.338;6.514;2023-04-04T13:40:57;9.70;85.90
52181;DHT22;38158;53.338;6.514;2023-04-04T13:43:23;9.70;84.90
52181;DHT22;38158;53.338;6.514;2023-04-04T13:45:49;9.70;85.00
52181;DHT22;38158;53.338;6.514;2023-04-04T13:48:15;9.70;86.30
52181;DHT22;38158;53.338;6.514;2023-04-04T13:50:42;9.60;85.00
52181;DHT22;38158;53.338;6.514;2023-04-04T13:53:09;9.60;85.50
52181;DHT22;38158;53.338;6.514;2023-04-04T13:55:36;9.50;83.50
52181;DHT22;38158;53.338;6.514;2023-04-04T13:58:02;9.50;83.50
52181;DHT22;38158;53.338;6.514;2023-04-04T14:00:28;9.50;83.80
52181;DHT22;38158;53.338;6.514;2023-04-04T14:02:54;9.50;85.00
52181;DHT22;38158;53.338;6.514;2023-04-04T14:05:21;9.50;84.60
52181;DHT22;38158;53.338;6.514;2023-04-04T14:07:47;9.30;79.10
52181;DHT22;38158;53.338;6.514;2023-04-04T14:10:12;9.60;83.90
52181;DHT22;38158;53.338;6.514;2023-04-04T14:12:38;9.50;82.40
52181;DHT22;38158;53.338;6.514;2023-04-04T14:15:05;9.50;82.20
52181;DHT22;38158;53.338;6.514;2023-04-04T14:17:34;9.40;82.90
52181;DHT22;38158;53.338;6.514;2023-04-04T14:20:00;9.50;82.80
52181;DHT22;38158;53.338;6.514;2023-04-04T14:22:26;9.40;80.80
52181;DHT22;38158;53.338;6.514;2023-04-04T14:24:51;9.40;81.30
52181;DHT22;38158;53.338;6.514;2023-04-04T14:27:17;9.40;82.90
52181;DHT22;38158;53.338;6.514;2023-04-04T14:29:43;9.50;83.30
52181;DHT22;38158;53.338;6.514;2023-04-04T14:32:09;9.50;82.20
52181;DHT22;38158;53.338;6.514;2023-04-04T14:34:35;9.60;82.20
52181;DHT22;38158;53.338;6.514;2023-04-04T14:37:02;9.60;83.20
52181;DHT22;38158;53.338;6.514;2023-04-04T14:39:28;9.60;83.30
52181;DHT22;38158;53.338;6.514;2023-04-04T14:41:53;9.50;83.60
52181;DHT22;38158;53.338;6.514;2023-04-04T14:44:19;9.50;83.80
52181;DHT22;38158;53.338;6.514;2023-04-04T14:46:50;9.40;82.50
52181;DHT22;38158;53.338;6.514;2023-04-04T14:49:17;9.40;82.70
52181;DHT22;38158;53.338;6.514;2023-04-04T14:51:43;9.40;83.30
52181;DHT22;38158;53.338;6.514;2023-04-04T14:54:08;9.50;83.70
52181;DHT22;38158;53.338;6.514;2023-04-04T14:56:34;9.50;83.70
52181;DHT22;38158;53.338;6.514;2023-04-04T14:59:00;9.50;82.90
52181;DHT22;38158;53.338;6.514;2023-04-04T15:01:28;9.40;83.50
52181;DHT22;38158;53.338;6.514;2023-04-04T15:03:53;9.40;83.00
52181;DHT22;38158;53.338;6.514;2023-04-04T15:06:20;9.50;83.30
52181;DHT22;38158;53.338;6.514;2023-04-04T15:08:46;9.40;82.50
52181;DHT22;38158;53.338;6.514;2023-04-04T15:11:12;9.40;83.20
52181;DHT22;38158;53.338;6.514;2023-04-04T15:13:38;9.30;83.40
52181;DHT22;38158;53.338;6.514;2023-04-04T15:16:04;9.30;84.10
52181;DHT22;38158;53.338;6.514;2023-04-04T15:18:30;9.20;82.10
52181;DHT22;38158;53.338;6.514;2023-04-04T15:20:58;9.10;82.00
52181;DHT22;38158;53.338;6.514;2023-04-04T15:23:24;9.10;80.80
52181;DHT22;38158;53.338;6.514;2023-04-04T15:25:49;9.10;81.80
52181;DHT22;38158;53.338;6.514;2023-04-04T15:28:15;9.00;82.60
52181;DHT22;38158;53.338;6.514;2023-04-04T15:30:41;8.90;83.30
52181;DHT22;38158;53.338;6.514;2023-04-04T15:33:06;8.80;85.10
52181;DHT22;38158;53.338;6.514;2023-04-04T15:35:32;8.80;84.50
52181;DHT22;38158;53.338;6.514;2023-04-04T15:37:58;8.80;84.20
52181;DHT22;38158;53.338;6.514;2023-04-04T15:40:24;8.70;84.30
52181;DHT22;38158;53.338;6.514;2023-04-04T15:42:50;8.70;85.50
52181;DHT22;38158;53.338;6.514;2023-04-04T15:45:16;8.70;86.50
52181;DHT22;38158;53.338;6.514;2023-04-04T15:47:41;8.60;86.60
52181;DHT22;38158;53.338;6.514;2023-04-04T15:50:08;8.60;86.30
52181;DHT22;38158;53.338;6.514;2023-04-04T15:52:33;8.50;85.20
52181;DHT22;38158;53.338;6.514;2023-04-04T15:54:59;8.50;84.80
52181;DHT22;38158;53.338;6.514;2023-04-04T15:57:25;8.50;85.90
52181;DHT22;38158;53.338;6.514;2023-04-04T15:59:51;8.50;89.80
52181;DHT22;38158;53.338;6.514;2023-04-04T16:02:18;8.50;91.60